Terminal Aerodrome Forecast
Issued by NWS

Home | Current Version | Previous Version | Text Only | Print | Product List | Glossary On
Versions: 1 2 3 4 5 6 7 8 9 10 11 12 13 14 15 16 17 18 19 20 21
000
FTUS44 KOHX 160500
TAFCKV
TAF
KCKV 160520Z 1606/1706 21004KT P6SM SCT080 BKN150
     FM161100 33005KT 5SM BR VCSH OVC015
     FM161600 35007KT P6SM BKN035
     FM170100 34003KT P6SM FEW035=

USA.gov is the U.S. government's official web portal to all federal, state and local government web resources and services.